Nesenie raksti

Ziņas

Par Gliding.lv

Gliding.lv ir interneta vietne par planieriem un planierismu. Šeit būs atrodama informācija par iespējām pamēģināt, iesaistīties un organizēt planierisma aktivitātes. Izmanto Gliding.lv forumu, ja Tev ir kāda tēma diskusijai vai jautājums. Gliding.lv merķis ir informēt un apvienot planierisma interesentus, nodrošinot un apmainoties ar aktuālāko un arī bijušo. Lidojam!

Laiks Rīgā
15°
clear sky
mitrums: 47%
vējš: 7m/s D
Aug 18 • Zem 16
20°
Otr
22°
Tre
14°
Cet
14°
Pie
Meteo-dati no OpenWeatherMap

METAR

EVRA 100620Z 18014KT CAVOK 15/04 Q1017 NOSIG

EVLA 100620Z AUTO 15008KT 9999 NCD 17/06 Q1014

EVVA 100620Z AUTO 16008KT 130V190 CAVOK 17/07 Q1014

Nesenie raksti

Pāriet uz rīkjoslu